Columbus Metropolitan Airport
KCSG : now visible

Airfield :











YOU CAN JOIN US ON...

 
LOGIN :

Register | Disclaimer

   EN    FR    IT 

 









Legend :    VFR   Marginal VFR   IFR   Intensive IFR   Very Intensive IFR
Visi :
Ceiling :
>= 8 km
>= 3000ft
5 to 8 km
1000 to 3000 ft
1500m to 5 km
500 to 1000 ft
800 to 1500m
200 to 500 ft
< 800m
< 200 ft
Symbols :   Thunderstorms  Fog  Heavy snow  Heavy precipitations  Wind > 20 kt






- Airport Elevation : 397 ft
- IATA code : CSG


KCSG - Columbus Metropolitan

CURRENT METAR :
  • 301451Z 34005KT 10SM CLR 19/09 A3011 RMK AO2 SLP194 T01890094 51012

EXPIRED METARs :
  • 301351Z 31007KT 10SM CLR 16/10 A3010 RMK AO2 SLP190 T01610100
  • 301251Z AUTO 00000KT 10SM CLR 12/11 A3009 RMK AO2 SLP187 T01220111

TAF KCSG
Valid from the 30 at 12:00 until the 01 at 12:00 UTC


301128Z 3012/0112 31004KT P6SM SKC
FM301800 30007KT P6SM SKC
FM010000 29003KT P6SM SKC
FM010200 00000KT P6SM SKC
KZTL FIR / North America



MET'MAP, your aeronautical weather chart ! - Copyright ORBIFLY December 2007 - Disclaimer

ORBIFLY MET'MAP TEAM :

Programming & Development : Alexandra Zaïnal
Concept & original design : Baudouin d'Aumeries
Assistance for programming : Marc-Olivier Méhu
Technical & hardware support : Manuel Goepfert

Contact : metmap@orbifly.com




SOURCES & CREDITS :

   NOAA       Earth
Advisory